sensor_id;sensor_type;location;lat;lon;timestamp;P1;durP1;ratioP1;P2;durP2;ratioP2
9090;SDS011;4581;42.416;25.598;2022-09-09T00:04:31;0.00;;;0.00;;
9090;SDS011;4581;42.416;25.598;2022-09-09T00:07:10;0.45;;;0.45;;
9090;SDS011;4581;42.416;25.598;2022-09-09T00:10:08;0.10;;;0.10;;
9090;SDS011;4581;42.416;25.598;2022-09-09T00:12:47;0.00;;;0.00;;
9090;SDS011;4581;42.416;25.598;2022-09-09T00:15:43;0.00;;;0.00;;
9090;SDS011;4581;42.416;25.598;2022-09-09T00:22:18;0.20;;;0.20;;
9090;SDS011;4581;42.416;25.598;2022-09-09T00:24:42;0.10;;;0.10;;
9090;SDS011;4581;42.416;25.598;2022-09-09T00:29:49;0.10;;;0.10;;
9090;SDS011;4581;42.416;25.598;2022-09-09T00:32:24;0.17;;;0.17;;
9090;SDS011;4581;42.416;25.598;2022-09-09T00:34:57;0.10;;;0.10;;
9090;SDS011;4581;42.416;25.598;2022-09-09T00:37:29;0.00;;;0.00;;
9090;SDS011;4581;42.416;25.598;2022-09-09T00:40:02;0.10;;;0.10;;
9090;SDS011;4581;42.416;25.598;2022-09-09T00:42:48;0.00;;;0.00;;
9090;SDS011;4581;42.416;25.598;2022-09-09T00:46:21;0.20;;;0.20;;
9090;SDS011;4581;42.416;25.598;2022-09-09T00:48:31;0.00;;;0.00;;
9090;SDS011;4581;42.416;25.598;2022-09-09T00:54:16;0.20;;;0.20;;
9090;SDS011;4581;42.416;25.598;2022-09-09T00:57:28;0.43;;;0.43;;
9090;SDS011;4581;42.416;25.598;2022-09-09T01:00:16;0.00;;;0.00;;
9090;SDS011;4581;42.416;25.598;2022-09-09T01:05:20;0.00;;;0.00;;
9090;SDS011;4581;42.416;25.598;2022-09-09T01:07:49;0.07;;;0.07;;
9090;SDS011;4581;42.416;25.598;2022-09-09T01:10:39;0.10;;;0.10;;
9090;SDS011;4581;42.416;25.598;2022-09-09T01:13:15;0.03;;;0.03;;
9090;SDS011;4581;42.416;25.598;2022-09-09T01:15:49;0.00;;;0.00;;
9090;SDS011;4581;42.416;25.598;2022-09-09T01:18:27;0.00;;;0.00;;
9090;SDS011;4581;42.416;25.598;2022-09-09T01:26:37;0.00;;;0.00;;
9090;SDS011;4581;42.416;25.598;2022-09-09T01:29:15;0.00;;;0.00;;
9090;SDS011;4581;42.416;25.598;2022-09-09T01:34:24;0.00;;;0.00;;
9090;SDS011;4581;42.416;25.598;2022-09-09T01:36:58;0.00;;;0.00;;
9090;SDS011;4581;42.416;25.598;2022-09-09T01:39:32;0.00;;;0.00;;
9090;SDS011;4581;42.416;25.598;2022-09-09T01:42:01;0.10;;;0.10;;
9090;SDS011;4581;42.416;25.598;2022-09-09T01:44:29;0.00;;;0.00;;
9090;SDS011;4581;42.416;25.598;2022-09-09T01:46:57;0.00;;;0.00;;
9090;SDS011;4581;42.416;25.598;2022-09-09T01:49:23;0.00;;;0.00;;
9090;SDS011;4581;42.416;25.598;2022-09-09T01:51:54;0.00;;;0.00;;
9090;SDS011;4581;42.416;25.598;2022-09-09T01:54:23;0.00;;;0.00;;
9090;SDS011;4581;42.416;25.598;2022-09-09T01:57:00;0.20;;;0.20;;
9090;SDS011;4581;42.416;25.598;2022-09-09T02:05:39;0.00;;;0.00;;
9090;SDS011;4581;42.416;25.598;2022-09-09T02:11:13;0.10;;;0.10;;
9090;SDS011;4581;42.416;25.598;2022-09-09T02:13:43;0.10;;;0.10;;
9090;SDS011;4581;42.416;25.598;2022-09-09T02:19:01;0.10;;;0.10;;
9090;SDS011;4581;42.416;25.598;2022-09-09T02:21:34;0.10;;;0.10;;
9090;SDS011;4581;42.416;25.598;2022-09-09T02:24:06;0.00;;;0.00;;
9090;SDS011;4581;42.416;25.598;2022-09-09T02:26:38;0.00;;;0.00;;
9090;SDS011;4581;42.416;25.598;2022-09-09T02:29:26;0.00;;;0.00;;
9090;SDS011;4581;42.416;25.598;2022-09-09T02:32:22;0.00;;;0.00;;
9090;SDS011;4581;42.416;25.598;2022-09-09T02:34:58;0.00;;;0.00;;
9090;SDS011;4581;42.416;25.598;2022-09-09T02:37:32;0.10;;;0.10;;
9090;SDS011;4581;42.416;25.598;2022-09-09T02:40:05;0.00;;;0.00;;
9090;SDS011;4581;42.416;25.598;2022-09-09T02:42:40;0.00;;;0.00;;
9090;SDS011;4581;42.416;25.598;2022-09-09T02:45:12;0.10;;;0.10;;
9090;SDS011;4581;42.416;25.598;2022-09-09T02:47:44;0.00;;;0.00;;
9090;SDS011;4581;42.416;25.598;2022-09-09T02:50:30;0.07;;;0.07;;
9090;SDS011;4581;42.416;25.598;2022-09-09T02:53:35;0.00;;;0.00;;
9090;SDS011;4581;42.416;25.598;2022-09-09T02:56:17;0.10;;;0.10;;
9090;SDS011;4581;42.416;25.598;2022-09-09T02:58:50;0.00;;;0.00;;
9090;SDS011;4581;42.416;25.598;2022-09-09T03:01:20;0.00;;;0.00;;
9090;SDS011;4581;42.416;25.598;2022-09-09T03:03:48;0.20;;;0.20;;
9090;SDS011;4581;42.416;25.598;2022-09-09T03:06:15;0.10;;;0.10;;
9090;SDS011;4581;42.416;25.598;2022-09-09T03:08:42;0.30;;;0.30;;
9090;SDS011;4581;42.416;25.598;2022-09-09T03:11:15;0.20;;;0.20;;
9090;SDS011;4581;42.416;25.598;2022-09-09T03:13:42;0.17;;;0.17;;
9090;SDS011;4581;42.416;25.598;2022-09-09T03:16:11;0.40;;;0.37;;
9090;SDS011;4581;42.416;25.598;2022-09-09T03:18:38;0.00;;;0.00;;
9090;SDS011;4581;42.416;25.598;2022-09-09T03:21:05;0.27;;;0.27;;
9090;SDS011;4581;42.416;25.598;2022-09-09T03:23:33;0.00;;;0.00;;
9090;SDS011;4581;42.416;25.598;2022-09-09T03:25:59;0.00;;;0.00;;
9090;SDS011;4581;42.416;25.598;2022-09-09T03:28:30;0.17;;;0.17;;
9090;SDS011;4581;42.416;25.598;2022-09-09T03:30:58;0.00;;;0.00;;
9090;SDS011;4581;42.416;25.598;2022-09-09T03:33:29;0.00;;;0.00;;
9090;SDS011;4581;42.416;25.598;2022-09-09T03:35:58;0.25;;;0.25;;
9090;SDS011;4581;42.416;25.598;2022-09-09T03:38:25;0.40;;;0.30;;
9090;SDS011;4581;42.416;25.598;2022-09-09T03:41:02;0.20;;;0.20;;
9090;SDS011;4581;42.416;25.598;2022-09-09T03:43:30;0.13;;;0.13;;
9090;SDS011;4581;42.416;25.598;2022-09-09T03:45:56;0.10;;;0.10;;
9090;SDS011;4581;42.416;25.598;2022-09-09T03:48:24;0.00;;;0.00;;
9090;SDS011;4581;42.416;25.598;2022-09-09T03:50:54;0.20;;;0.20;;
9090;SDS011;4581;42.416;25.598;2022-09-09T03:53:35;0.00;;;0.00;;
9090;SDS011;4581;42.416;25.598;2022-09-09T03:56:02;0.20;;;0.20;;
9090;SDS011;4581;42.416;25.598;2022-09-09T03:58:30;0.10;;;0.10;;
9090;SDS011;4581;42.416;25.598;2022-09-09T04:00:57;0.17;;;0.17;;
9090;SDS011;4581;42.416;25.598;2022-09-09T04:03:27;0.27;;;0.27;;
9090;SDS011;4581;42.416;25.598;2022-09-09T04:05:55;0.10;;;0.10;;
9090;SDS011;4581;42.416;25.598;2022-09-09T04:08:23;0.00;;;0.00;;
9090;SDS011;4581;42.416;25.598;2022-09-09T04:10:55;0.00;;;0.00;;
9090;SDS011;4581;42.416;25.598;2022-09-09T04:13:24;0.07;;;0.07;;
9090;SDS011;4581;42.416;25.598;2022-09-09T04:15:55;0.00;;;0.00;;
9090;SDS011;4581;42.416;25.598;2022-09-09T04:18:33;0.00;;;0.00;;
9090;SDS011;4581;42.416;25.598;2022-09-09T04:21:01;0.00;;;0.00;;
9090;SDS011;4581;42.416;25.598;2022-09-09T04:23:30;0.00;;;0.00;;
9090;SDS011;4581;42.416;25.598;2022-09-09T04:25:57;0.00;;;0.00;;
9090;SDS011;4581;42.416;25.598;2022-09-09T04:28:29;0.00;;;0.00;;
9090;SDS011;4581;42.416;25.598;2022-09-09T04:31:03;0.00;;;0.00;;
9090;SDS011;4581;42.416;25.598;2022-09-09T04:33:35;0.00;;;0.00;;
9090;SDS011;4581;42.416;25.598;2022-09-09T04:36:19;0.20;;;0.20;;
9090;SDS011;4581;42.416;25.598;2022-09-09T04:38:48;0.23;;;0.23;;
9090;SDS011;4581;42.416;25.598;2022-09-09T04:41:18;0.00;;;0.00;;
9090;SDS011;4581;42.416;25.598;2022-09-09T04:43:45;0.00;;;0.00;;
9090;SDS011;4581;42.416;25.598;2022-09-09T04:46:12;0.10;;;0.10;;
9090;SDS011;4581;42.416;25.598;2022-09-09T04:48:44;0.03;;;0.03;;
9090;SDS011;4581;42.416;25.598;2022-09-09T04:51:12;0.00;;;0.00;;
9090;SDS011;4581;42.416;25.598;2022-09-09T04:53:40;0.10;;;0.10;;
9090;SDS011;4581;42.416;25.598;2022-09-09T04:56:08;0.00;;;0.00;;
9090;SDS011;4581;42.416;25.598;2022-09-09T04:58:40;0.00;;;0.00;;
9090;SDS011;4581;42.416;25.598;2022-09-09T05:01:12;0.30;;;0.30;;
9090;SDS011;4581;42.416;25.598;2022-09-09T05:03:42;0.10;;;0.10;;
9090;SDS011;4581;42.416;25.598;2022-09-09T05:06:16;0.00;;;0.00;;
9090;SDS011;4581;42.416;25.598;2022-09-09T05:08:44;0.22;;;0.22;;
9090;SDS011;4581;42.416;25.598;2022-09-09T05:13:43;0.10;;;0.10;;
9090;SDS011;4581;42.416;25.598;2022-09-09T05:16:10;0.20;;;0.20;;
9090;SDS011;4581;42.416;25.598;2022-09-09T05:18:38;0.00;;;0.00;;
9090;SDS011;4581;42.416;25.598;2022-09-09T05:21:06;0.03;;;0.03;;
9090;SDS011;4581;42.416;25.598;2022-09-09T05:23:33;0.57;;;0.57;;
9090;SDS011;4581;42.416;25.598;2022-09-09T05:26:00;0.10;;;0.10;;
9090;SDS011;4581;42.416;25.598;2022-09-09T05:28:28;0.35;;;0.35;;
9090;SDS011;4581;42.416;25.598;2022-09-09T05:30:57;0.28;;;0.28;;
9090;SDS011;4581;42.416;25.598;2022-09-09T05:33:25;0.10;;;0.10;;
9090;SDS011;4581;42.416;25.598;2022-09-09T05:36:05;0.10;;;0.10;;
9090;SDS011;4581;42.416;25.598;2022-09-09T05:38:34;0.25;;;0.25;;
9090;SDS011;4581;42.416;25.598;2022-09-09T05:41:02;0.30;;;0.30;;
9090;SDS011;4581;42.416;25.598;2022-09-09T05:43:29;0.00;;;0.00;;
9090;SDS011;4581;42.416;25.598;2022-09-09T05:45:58;0.10;;;0.10;;
9090;SDS011;4581;42.416;25.598;2022-09-09T05:48:34;0.00;;;0.00;;
9090;SDS011;4581;42.416;25.598;2022-09-09T05:51:06;0.20;;;0.20;;
9090;SDS011;4581;42.416;25.598;2022-09-09T05:53:35;0.00;;;0.00;;
9090;SDS011;4581;42.416;25.598;2022-09-09T05:56:09;0.00;;;0.00;;
9090;SDS011;4581;42.416;25.598;2022-09-09T05:58:40;0.28;;;0.28;;
9090;SDS011;4581;42.416;25.598;2022-09-09T06:01:10;0.15;;;0.15;;
9090;SDS011;4581;42.416;25.598;2022-09-09T06:03:40;0.55;;;0.55;;
9090;SDS011;4581;42.416;25.598;2022-09-09T06:06:10;0.10;;;0.10;;
9090;SDS011;4581;42.416;25.598;2022-09-09T06:08:39;0.25;;;0.25;;
9090;SDS011;4581;42.416;25.598;2022-09-09T06:11:11;0.30;;;0.30;;
9090;SDS011;4581;42.416;25.598;2022-09-09T06:13:54;0.40;;;0.32;;
9090;SDS011;4581;42.416;25.598;2022-09-09T06:16:22;0.10;;;0.10;;
9090;SDS011;4581;42.416;25.598;2022-09-09T06:18:51;0.45;;;0.45;;
9090;SDS011;4581;42.416;25.598;2022-09-09T06:21:21;0.10;;;0.10;;
9090;SDS011;4581;42.416;25.598;2022-09-09T06:23:50;0.65;;;0.65;;
9090;SDS011;4581;42.416;25.598;2022-09-09T06:26:28;0.38;;;0.38;;
9090;SDS011;4581;42.416;25.598;2022-09-09T06:28:57;0.30;;;0.30;;
9090;SDS011;4581;42.416;25.598;2022-09-09T06:31:25;0.65;;;0.65;;
9090;SDS011;4581;42.416;25.598;2022-09-09T06:34:04;0.30;;;0.30;;
9090;SDS011;4581;42.416;25.598;2022-09-09T06:36:33;0.65;;;0.30;;
9090;SDS011;4581;42.416;25.598;2022-09-09T06:39:01;0.20;;;0.20;;
9090;SDS011;4581;42.416;25.598;2022-09-09T06:41:30;0.10;;;0.10;;
9090;SDS011;4581;42.416;25.598;2022-09-09T06:44:00;0.10;;;0.10;;
9090;SDS011;4581;42.416;25.598;2022-09-09T06:46:28;0.25;;;0.25;;
9090;SDS011;4581;42.416;25.598;2022-09-09T06:48:59;0.10;;;0.10;;
9090;SDS011;4581;42.416;25.598;2022-09-09T06:51:30;0.47;;;0.43;;
9090;SDS011;4581;42.416;25.598;2022-09-09T06:53:59;0.10;;;0.10;;
9090;SDS011;4581;42.416;25.598;2022-09-09T06:56:38;0.10;;;0.10;;
9090;SDS011;4581;42.416;25.598;2022-09-09T06:59:08;0.10;;;0.10;;
9090;SDS011;4581;42.416;25.598;2022-09-09T07:01:36;0.08;;;0.08;;
9090;SDS011;4581;42.416;25.598;2022-09-09T07:04:04;0.08;;;0.08;;
9090;SDS011;4581;42.416;25.598;2022-09-09T07:06:37;0.10;;;0.10;;
9090;SDS011;4581;42.416;25.598;2022-09-09T07:09:08;0.00;;;0.00;;
9090;SDS011;4581;42.416;25.598;2022-09-09T07:11:40;0.20;;;0.20;;
9090;SDS011;4581;42.416;25.598;2022-09-09T07:14:09;0.00;;;0.00;;
9090;SDS011;4581;42.416;25.598;2022-09-09T07:16:44;0.10;;;0.10;;
9090;SDS011;4581;42.416;25.598;2022-09-09T07:19:13;0.10;;;0.10;;
9090;SDS011;4581;42.416;25.598;2022-09-09T07:21:42;0.10;;;0.10;;
9090;SDS011;4581;42.416;25.598;2022-09-09T07:24:10;0.00;;;0.00;;
9090;SDS011;4581;42.416;25.598;2022-09-09T07:26:39;0.03;;;0.03;;
9090;SDS011;4581;42.416;25.598;2022-09-09T07:29:06;0.00;;;0.00;;
9090;SDS011;4581;42.416;25.598;2022-09-09T07:34:15;0.00;;;0.00;;
9090;SDS011;4581;42.416;25.598;2022-09-09T07:36:42;0.00;;;0.00;;
9090;SDS011;4581;42.416;25.598;2022-09-09T07:39:09;0.15;;;0.15;;
9090;SDS011;4581;42.416;25.598;2022-09-09T07:41:41;0.10;;;0.10;;
9090;SDS011;4581;42.416;25.598;2022-09-09T07:44:13;0.20;;;0.20;;
9090;SDS011;4581;42.416;25.598;2022-09-09T07:46:56;0.30;;;0.28;;
9090;SDS011;4581;42.416;25.598;2022-09-09T07:49:23;0.20;;;0.20;;
9090;SDS011;4581;42.416;25.598;2022-09-09T07:51:58;0.10;;;0.10;;
9090;SDS011;4581;42.416;25.598;2022-09-09T07:54:28;0.10;;;0.10;;
9090;SDS011;4581;42.416;25.598;2022-09-09T07:56:55;0.00;;;0.00;;
9090;SDS011;4581;42.416;25.598;2022-09-09T07:59:29;0.10;;;0.10;;
9090;SDS011;4581;42.416;25.598;2022-09-09T08:01:56;0.10;;;0.10;;
9090;SDS011;4581;42.416;25.598;2022-09-09T08:04:25;0.10;;;0.10;;
9090;SDS011;4581;42.416;25.598;2022-09-09T08:06:54;0.10;;;0.10;;
9090;SDS011;4581;42.416;25.598;2022-09-09T08:09:23;0.10;;;0.10;;
9090;SDS011;4581;42.416;25.598;2022-09-09T08:11:54;0.10;;;0.10;;
9090;SDS011;4581;42.416;25.598;2022-09-09T08:14:25;0.10;;;0.10;;
9090;SDS011;4581;42.416;25.598;2022-09-09T08:16:51;2.55;;;0.35;;
9090;SDS011;4581;42.416;25.598;2022-09-09T08:19:22;0.03;;;0.03;;
9090;SDS011;4581;42.416;25.598;2022-09-09T08:21:49;0.00;;;0.00;;
9090;SDS011;4581;42.416;25.598;2022-09-09T08:24:16;0.10;;;0.10;;
9090;SDS011;4581;42.416;25.598;2022-09-09T08:26:44;0.65;;;0.50;;
9090;SDS011;4581;42.416;25.598;2022-09-09T08:29:15;0.10;;;0.10;;
9090;SDS011;4581;42.416;25.598;2022-09-09T08:31:54;0.50;;;0.50;;
9090;SDS011;4581;42.416;25.598;2022-09-09T08:34:28;0.10;;;0.10;;
9090;SDS011;4581;42.416;25.598;2022-09-09T08:36:57;0.00;;;0.00;;
9090;SDS011;4581;42.416;25.598;2022-09-09T08:39:23;1.35;;;0.65;;
9090;SDS011;4581;42.416;25.598;2022-09-09T08:52:43;0.30;;;0.30;;
9090;SDS011;4581;42.416;25.598;2022-09-09T08:58:16;0.10;;;0.10;;
9090;SDS011;4581;42.416;25.598;2022-09-09T09:12:21;0.28;;;0.20;;
9090;SDS011;4581;42.416;25.598;2022-09-09T09:14:52;0.10;;;0.10;;
9090;SDS011;4581;42.416;25.598;2022-09-09T09:17:20;0.47;;;0.47;;
9090;SDS011;4581;42.416;25.598;2022-09-09T09:19:49;0.20;;;0.20;;
9090;SDS011;4581;42.416;25.598;2022-09-09T09:30:35;0.10;;;0.10;;
9090;SDS011;4581;42.416;25.598;2022-09-09T09:35:50;0.30;;;0.30;;
9090;SDS011;4581;42.416;25.598;2022-09-09T09:38:18;0.30;;;0.30;;
9090;SDS011;4581;42.416;25.598;2022-09-09T09:41:10;0.10;;;0.10;;
9090;SDS011;4581;42.416;25.598;2022-09-09T09:43:39;0.10;;;0.10;;
9090;SDS011;4581;42.416;25.598;2022-09-09T09:46:22;0.00;;;0.00;;
9090;SDS011;4581;42.416;25.598;2022-09-09T09:49:02;0.20;;;0.20;;
9090;SDS011;4581;42.416;25.598;2022-09-09T09:51:35;0.25;;;0.25;;
9090;SDS011;4581;42.416;25.598;2022-09-09T09:54:27;0.10;;;0.10;;
9090;SDS011;4581;42.416;25.598;2022-09-09T09:57:16;0.17;;;0.17;;
9090;SDS011;4581;42.416;25.598;2022-09-09T10:02:38;0.10;;;0.10;;
9090;SDS011;4581;42.416;25.598;2022-09-09T10:08:13;0.28;;;0.25;;
9090;SDS011;4581;42.416;25.598;2022-09-09T10:13:56;0.45;;;0.45;;
9090;SDS011;4581;42.416;25.598;2022-09-09T10:16:49;0.17;;;0.17;;
9090;SDS011;4581;42.416;25.598;2022-09-09T10:19:36;0.25;;;0.25;;
9090;SDS011;4581;42.416;25.598;2022-09-09T10:38:40;0.10;;;0.10;;
9090;SDS011;4581;42.416;25.598;2022-09-09T10:41:40;0.10;;;0.10;;
9090;SDS011;4581;42.416;25.598;2022-09-09T10:45:02;0.40;;;0.40;;
9090;SDS011;4581;42.416;25.598;2022-09-09T10:47:57;0.40;;;0.40;;
9090;SDS011;4581;42.416;25.598;2022-09-09T10:53:35;0.30;;;0.30;;
9090;SDS011;4581;42.416;25.598;2022-09-09T10:56:20;0.10;;;0.10;;
9090;SDS011;4581;42.416;25.598;2022-09-09T11:01:46;0.32;;;0.32;;
9090;SDS011;4581;42.416;25.598;2022-09-09T11:07:34;0.10;;;0.10;;
9090;SDS011;4581;42.416;25.598;2022-09-09T11:13:13;0.20;;;0.20;;
9090;SDS011;4581;42.416;25.598;2022-09-09T11:18:46;0.28;;;0.28;;
9090;SDS011;4581;42.416;25.598;2022-09-09T11:21:28;0.10;;;0.10;;
9090;SDS011;4581;42.416;25.598;2022-09-09T11:24:48;0.13;;;0.13;;
9090;SDS011;4581;42.416;25.598;2022-09-09T11:27:21;0.32;;;0.32;;
9090;SDS011;4581;42.416;25.598;2022-09-09T11:30:02;0.30;;;0.30;;
9090;SDS011;4581;42.416;25.598;2022-09-09T11:38:52;0.50;;;0.50;;
9090;SDS011;4581;42.416;25.598;2022-09-09T11:41:33;0.20;;;0.20;;
9090;SDS011;4581;42.416;25.598;2022-09-09T11:44:10;0.40;;;0.40;;
9090;SDS011;4581;42.416;25.598;2022-09-09T11:46:39;0.55;;;0.50;;
9090;SDS011;4581;42.416;25.598;2022-09-09T11:49:25;0.10;;;0.10;;
9090;SDS011;4581;42.416;25.598;2022-09-09T11:52:10;0.63;;;0.63;;
9090;SDS011;4581;42.416;25.598;2022-09-09T11:58:00;0.10;;;0.10;;
9090;SDS011;4581;42.416;25.598;2022-09-09T12:00:41;0.35;;;0.22;;
9090;SDS011;4581;42.416;25.598;2022-09-09T12:03:33;0.10;;;0.10;;
9090;SDS011;4581;42.416;25.598;2022-09-09T12:06:29;0.35;;;0.35;;
9090;SDS011;4581;42.416;25.598;2022-09-09T12:09:12;0.20;;;0.20;;
9090;SDS011;4581;42.416;25.598;2022-09-09T12:11:51;0.20;;;0.20;;
9090;SDS011;4581;42.416;25.598;2022-09-09T12:14:20;0.30;;;0.30;;
9090;SDS011;4581;42.416;25.598;2022-09-09T12:16:51;0.35;;;0.35;;
9090;SDS011;4581;42.416;25.598;2022-09-09T12:19:19;0.20;;;0.20;;
9090;SDS011;4581;42.416;25.598;2022-09-09T12:22:01;0.47;;;0.47;;
9090;SDS011;4581;42.416;25.598;2022-09-09T12:27:58;0.63;;;0.63;;
9090;SDS011;4581;42.416;25.598;2022-09-09T12:30:29;0.45;;;0.45;;
9090;SDS011;4581;42.416;25.598;2022-09-09T12:33:11;0.40;;;0.40;;
9090;SDS011;4581;42.416;25.598;2022-09-09T12:35:43;0.75;;;0.50;;
9090;SDS011;4581;42.416;25.598;2022-09-09T12:38:15;0.57;;;0.57;;
9090;SDS011;4581;42.416;25.598;2022-09-09T12:40:55;0.32;;;0.32;;
9090;SDS011;4581;42.416;25.598;2022-09-09T12:43:25;0.77;;;0.68;;
9090;SDS011;4581;42.416;25.598;2022-09-09T12:45:55;0.75;;;0.47;;
9090;SDS011;4581;42.416;25.598;2022-09-09T12:48:39;0.82;;;0.82;;
9090;SDS011;4581;42.416;25.598;2022-09-09T12:51:18;0.22;;;0.22;;
9090;SDS011;4581;42.416;25.598;2022-09-09T12:53:51;0.50;;;0.50;;
9090;SDS011;4581;42.416;25.598;2022-09-09T12:56:19;0.20;;;0.20;;
9090;SDS011;4581;42.416;25.598;2022-09-09T12:58:49;0.20;;;0.20;;
9090;SDS011;4581;42.416;25.598;2022-09-09T13:01:20;0.10;;;0.10;;
9090;SDS011;4581;42.416;25.598;2022-09-09T13:03:56;0.20;;;0.20;;
9090;SDS011;4581;42.416;25.598;2022-09-09T13:06:30;0.52;;;0.52;;
9090;SDS011;4581;42.416;25.598;2022-09-09T13:09:07;0.10;;;0.10;;
9090;SDS011;4581;42.416;25.598;2022-09-09T13:11:42;0.50;;;0.50;;
9090;SDS011;4581;42.416;25.598;2022-09-09T13:14:36;0.20;;;0.20;;
9090;SDS011;4581;42.416;25.598;2022-09-09T13:17:15;0.20;;;0.20;;
9090;SDS011;4581;42.416;25.598;2022-09-09T13:19:49;0.10;;;0.10;;
9090;SDS011;4581;42.416;25.598;2022-09-09T13:37:07;0.45;;;0.45;;
9090;SDS011;4581;42.416;25.598;2022-09-09T13:40:05;0.25;;;0.25;;
9090;SDS011;4581;42.416;25.598;2022-09-09T13:42:33;0.13;;;0.13;;
9090;SDS011;4581;42.416;25.598;2022-09-09T13:45:19;0.55;;;0.55;;
9090;SDS011;4581;42.416;25.598;2022-09-09T13:48:08;0.30;;;0.30;;
9090;SDS011;4581;42.416;25.598;2022-09-09T13:50:36;0.20;;;0.20;;
9090;SDS011;4581;42.416;25.598;2022-09-09T13:53:02;0.20;;;0.20;;
9090;SDS011;4581;42.416;25.598;2022-09-09T13:55:30;0.10;;;0.10;;
9090;SDS011;4581;42.416;25.598;2022-09-09T13:58:00;0.80;;;0.80;;
9090;SDS011;4581;42.416;25.598;2022-09-09T14:00:30;0.10;;;0.10;;
9090;SDS011;4581;42.416;25.598;2022-09-09T14:03:00;0.10;;;0.10;;
9090;SDS011;4581;42.416;25.598;2022-09-09T14:05:33;0.95;;;0.40;;
9090;SDS011;4581;42.416;25.598;2022-09-09T14:08:00;0.63;;;0.63;;
9090;SDS011;4581;42.416;25.598;2022-09-09T14:10:29;0.20;;;0.20;;
9090;SDS011;4581;42.416;25.598;2022-09-09T14:12:56;0.38;;;0.38;;
9090;SDS011;4581;42.416;25.598;2022-09-09T14:15:28;0.40;;;0.40;;
9090;SDS011;4581;42.416;25.598;2022-09-09T14:17:56;0.20;;;0.20;;
9090;SDS011;4581;42.416;25.598;2022-09-09T14:20:25;0.30;;;0.30;;
9090;SDS011;4581;42.416;25.598;2022-09-09T14:22:52;0.20;;;0.20;;
9090;SDS011;4581;42.416;25.598;2022-09-09T14:25:22;0.25;;;0.25;;
9090;SDS011;4581;42.416;25.598;2022-09-09T14:27:49;0.30;;;0.30;;
9090;SDS011;4581;42.416;25.598;2022-09-09T14:30:17;0.20;;;0.20;;
9090;SDS011;4581;42.416;25.598;2022-09-09T14:32:44;0.17;;;0.17;;
9090;SDS011;4581;42.416;25.598;2022-09-09T14:35:12;0.20;;;0.20;;
9090;SDS011;4581;42.416;25.598;2022-09-09T14:37:38;0.20;;;0.20;;
9090;SDS011;4581;42.416;25.598;2022-09-09T14:40:07;0.13;;;0.13;;
9090;SDS011;4581;42.416;25.598;2022-09-09T14:42:34;0.30;;;0.30;;
9090;SDS011;4581;42.416;25.598;2022-09-09T14:45:01;0.28;;;0.28;;
9090;SDS011;4581;42.416;25.598;2022-09-09T14:47:27;0.15;;;0.15;;
9090;SDS011;4581;42.416;25.598;2022-09-09T14:49:56;0.43;;;0.43;;
9090;SDS011;4581;42.416;25.598;2022-09-09T14:52:22;0.30;;;0.30;;
9090;SDS011;4581;42.416;25.598;2022-09-09T14:54:49;0.30;;;0.30;;
9090;SDS011;4581;42.416;25.598;2022-09-09T14:57:15;0.20;;;0.20;;
9090;SDS011;4581;42.416;25.598;2022-09-09T14:59:43;0.32;;;0.32;;
9090;SDS011;4581;42.416;25.598;2022-09-09T15:02:14;0.20;;;0.20;;
9090;SDS011;4581;42.416;25.598;2022-09-09T15:04:42;0.25;;;0.25;;
9090;SDS011;4581;42.416;25.598;2022-09-09T15:07:13;0.20;;;0.20;;
9090;SDS011;4581;42.416;25.598;2022-09-09T15:09:40;0.15;;;0.15;;
9090;SDS011;4581;42.416;25.598;2022-09-09T15:12:07;0.20;;;0.20;;
9090;SDS011;4581;42.416;25.598;2022-09-09T15:14:34;0.45;;;0.25;;
9090;SDS011;4581;42.416;25.598;2022-09-09T15:17:02;0.20;;;0.20;;
9090;SDS011;4581;42.416;25.598;2022-09-09T15:19:30;0.40;;;0.32;;
9090;SDS011;4581;42.416;25.598;2022-09-09T15:21:58;0.20;;;0.20;;
9090;SDS011;4581;42.416;25.598;2022-09-09T15:24:26;0.10;;;0.10;;
9090;SDS011;4581;42.416;25.598;2022-09-09T15:26:52;0.40;;;0.40;;
9090;SDS011;4581;42.416;25.598;2022-09-09T15:29:20;0.10;;;0.10;;
9090;SDS011;4581;42.416;25.598;2022-09-09T15:31:50;0.32;;;0.32;;
9090;SDS011;4581;42.416;25.598;2022-09-09T15:34:17;0.57;;;0.35;;
9090;SDS011;4581;42.416;25.598;2022-09-09T15:36:44;0.25;;;0.25;;
9090;SDS011;4581;42.416;25.598;2022-09-09T15:39:25;0.30;;;0.30;;
9090;SDS011;4581;42.416;25.598;2022-09-09T15:41:53;0.10;;;0.10;;
9090;SDS011;4581;42.416;25.598;2022-09-09T15:44:20;0.10;;;0.10;;
9090;SDS011;4581;42.416;25.598;2022-09-09T15:46:50;0.47;;;0.47;;
9090;SDS011;4581;42.416;25.598;2022-09-09T15:49:25;0.25;;;0.25;;
9090;SDS011;4581;42.416;25.598;2022-09-09T15:51:53;0.17;;;0.17;;
9090;SDS011;4581;42.416;25.598;2022-09-09T15:54:24;3.03;;;0.43;;
9090;SDS011;4581;42.416;25.598;2022-09-09T15:56:55;0.28;;;0.28;;
9090;SDS011;4581;42.416;25.598;2022-09-09T15:59:27;0.28;;;0.28;;
9090;SDS011;4581;42.416;25.598;2022-09-09T16:01:56;0.40;;;0.40;;
9090;SDS011;4581;42.416;25.598;2022-09-09T16:04:24;0.17;;;0.17;;
9090;SDS011;4581;42.416;25.598;2022-09-09T16:06:55;0.15;;;0.15;;
9090;SDS011;4581;42.416;25.598;2022-09-09T16:09:28;0.38;;;0.38;;
9090;SDS011;4581;42.416;25.598;2022-09-09T16:11:58;0.45;;;0.40;;
9090;SDS011;4581;42.416;25.598;2022-09-09T16:14:27;0.30;;;0.30;;
9090;SDS011;4581;42.416;25.598;2022-09-09T16:16:54;0.10;;;0.10;;
9090;SDS011;4581;42.416;25.598;2022-09-09T16:19:23;0.25;;;0.25;;
9090;SDS011;4581;42.416;25.598;2022-09-09T16:21:53;0.45;;;0.45;;
9090;SDS011;4581;42.416;25.598;2022-09-09T16:24:19;1.10;;;1.05;;
9090;SDS011;4581;42.416;25.598;2022-09-09T16:26:48;0.77;;;0.77;;
9090;SDS011;4581;42.416;25.598;2022-09-09T16:29:17;3.38;;;2.47;;
9090;SDS011;4581;42.416;25.598;2022-09-09T16:31:45;2.80;;;2.45;;
9090;SDS011;4581;42.416;25.598;2022-09-09T16:34:13;6.53;;;2.90;;
9090;SDS011;4581;42.416;25.598;2022-09-09T16:36:45;4.60;;;3.15;;
9090;SDS011;4581;42.416;25.598;2022-09-09T16:39:14;2.10;;;1.90;;
9090;SDS011;4581;42.416;25.598;2022-09-09T16:41:45;0.63;;;0.63;;
9090;SDS011;4581;42.416;25.598;2022-09-09T16:44:15;8.77;;;5.60;;
9090;SDS011;4581;42.416;25.598;2022-09-09T16:46:45;4.57;;;4.18;;
9090;SDS011;4581;42.416;25.598;2022-09-09T16:49:15;3.28;;;2.38;;
9090;SDS011;4581;42.416;25.598;2022-09-09T16:51:47;4.45;;;3.10;;
9090;SDS011;4581;42.416;25.598;2022-09-09T16:54:15;7.10;;;3.95;;
9090;SDS011;4581;42.416;25.598;2022-09-09T16:56:46;0.85;;;0.85;;
9090;SDS011;4581;42.416;25.598;2022-09-09T16:59:15;1.50;;;0.65;;
9090;SDS011;4581;42.416;25.598;2022-09-09T17:01:47;1.80;;;1.13;;
9090;SDS011;4581;42.416;25.598;2022-09-09T17:04:19;1.65;;;1.50;;
9090;SDS011;4581;42.416;25.598;2022-09-09T17:06:52;4.45;;;3.58;;
9090;SDS011;4581;42.416;25.598;2022-09-09T17:09:21;2.35;;;1.02;;
9090;SDS011;4581;42.416;25.598;2022-09-09T17:11:49;1.35;;;1.25;;
9090;SDS011;4581;42.416;25.598;2022-09-09T17:14:19;0.22;;;0.22;;
9090;SDS011;4581;42.416;25.598;2022-09-09T17:16:48;1.00;;;0.85;;
9090;SDS011;4581;42.416;25.598;2022-09-09T17:19:15;0.50;;;0.50;;
9090;SDS011;4581;42.416;25.598;2022-09-09T17:21:42;0.68;;;0.50;;
9090;SDS011;4581;42.416;25.598;2022-09-09T17:24:30;0.13;;;0.13;;
9090;SDS011;4581;42.416;25.598;2022-09-09T17:26:57;0.20;;;0.20;;
9090;SDS011;4581;42.416;25.598;2022-09-09T17:29:24;1.30;;;1.20;;
9090;SDS011;4581;42.416;25.598;2022-09-09T17:31:51;0.98;;;0.63;;
9090;SDS011;4581;42.416;25.598;2022-09-09T17:34:18;0.10;;;0.10;;
9090;SDS011;4581;42.416;25.598;2022-09-09T17:36:45;0.52;;;0.52;;
9090;SDS011;4581;42.416;25.598;2022-09-09T17:39:14;0.13;;;0.13;;
9090;SDS011;4581;42.416;25.598;2022-09-09T17:41:42;0.73;;;0.73;;
9090;SDS011;4581;42.416;25.598;2022-09-09T17:44:09;3.35;;;0.73;;
9090;SDS011;4581;42.416;25.598;2022-09-09T17:46:40;0.20;;;0.20;;
9090;SDS011;4581;42.416;25.598;2022-09-09T17:49:11;4.00;;;2.10;;
9090;SDS011;4581;42.416;25.598;2022-09-09T17:51:54;2.45;;;0.57;;
9090;SDS011;4581;42.416;25.598;2022-09-09T17:54:23;0.90;;;0.57;;
9090;SDS011;4581;42.416;25.598;2022-09-09T17:56:50;0.10;;;0.10;;
9090;SDS011;4581;42.416;25.598;2022-09-09T17:59:18;0.20;;;0.13;;